Pipe Creek, Indiana
Current Conditions -  °F | °C
As of 3:35 PM on Sunday 21 Dec 2014 (Local Time) from KMZZ Reporting Station
Clear Clear  
Wind Chill: 28°   Ceiling: Unl
Heat Index: 35°   Visibility: 7mi
Dew Point: 29°   Wind: 9mph
Humidity: 78%   Direction: 150°SSE
Pressure: 30.17"   Gusts: NA
Location:  40.3067°N, 85.834°W
Report Text: KMZZ 212035Z AUTO 15008KT 7SM CLR 02/M02 A3017 RMK AO2 T00181016
Loading
Personal Weather Stations






























Interactive Weather Map New forecast layout! Learn more

10-Day Weather Forecast

Advertisements
Track Severe Weather on mobile